Time;durP1;ratioP1;P1;durP2;ratioP2;P2;SDS_P1;SDS_P2;PMS_P1;PMS_P2;Temp;Humidity;BMP_temperature;BMP_pressure;BME280_temperature;BME280_humidity;BME280_pressure;Samples;Min_cycle;Max_cycle;Signal;HPM_P1;HPM_P2
2022/04/26 03:36:55;;;;;;;34.47;17.10;;;8.70;99.90;;;;;;5016675;28;20032;-63
2022/04/26 03:39:20;;;;;;;36.15;17.35;;;8.60;99.90;;;;;;5030196;28;20021;-62
2022/04/26 03:41:46;;;;;;;35.70;17.38;;;8.70;99.90;;;;;;5029728;28;20037;-62
2022/04/26 03:44:12;;;;;;;39.47;18.00;;;8.70;99.90;;;;;;5029717;28;20044;-62
2022/04/26 03:46:37;;;;;;;35.97;17.10;;;8.70;99.90;;;;;;5029791;28;20025;-62
2022/04/26 03:49:03;;;;;;;35.63;16.88;;;8.70;99.90;;;;;;5014783;28;20033;-62
2022/04/26 03:51:30;;;;;;;30.42;15.52;;;8.70;99.90;;;;;;5009165;28;20038;-62
2022/04/26 03:53:56;;;;;;;29.85;14.43;;;8.70;99.90;;;;;;4991730;28;20029;-62
2022/04/26 03:56:22;;;;;;;32.35;15.18;;;8.70;99.90;;;;;;5009884;28;20033;-62
2022/04/26 03:58:48;;;;;;;32.47;15.52;;;8.70;99.90;;;;;;5009992;28;20101;-62
2022/04/26 04:01:13;;;;;;;31.30;15.38;;;8.70;99.90;;;;;;4991418;28;20053;-62
2022/04/26 04:03:39;;;;;;;34.00;16.40;;;8.70;99.90;;;;;;5009775;28;20025;-62
2022/04/26 04:06:05;;;;;;;42.50;16.48;;;8.70;99.90;;;;;;4993577;28;20037;-62
2022/04/26 04:08:31;;;;;;;37.92;17.30;;;8.80;99.90;;;;;;5028217;28;20538;-62
2022/04/26 04:10:56;;;;;;;31.45;16.05;;;8.70;99.90;;;;;;5010937;28;20372;-61
2022/04/26 04:13:22;;;;;;;30.58;16.20;;;8.80;99.90;;;;;;5029458;28;20033;-62
2022/04/26 04:15:47;;;;;;;34.50;16.40;;;8.70;99.90;;;;;;5029474;28;20131;-62
2022/04/26 04:20:58;;;;;;;33.08;16.10;;;8.70;99.90;;;;;;5008821;28;20434;-62
2022/04/26 04:23:23;;;;;;;33.55;15.70;;;8.80;99.90;;;;;;5008343;28;20067;-62
2022/04/26 04:25:49;;;;;;;31.98;15.95;;;8.80;99.90;;;;;;5007868;28;20032;-62
2022/04/26 04:28:17;;;;;;;35.25;15.85;;;8.80;99.90;;;;;;5007428;28;20631;-62
2022/04/26 04:30:43;;;;;;;31.80;16.00;;;8.80;99.90;;;;;;5007788;28;20037;-62
2022/04/26 04:33:09;;;;;;;33.88;16.33;;;8.80;99.90;;;;;;5006009;28;20034;-62
2022/04/26 04:35:34;;;;;;;32.83;15.90;;;8.80;99.90;;;;;;5003974;28;20440;-62
2022/04/26 04:38:00;;;;;;;32.90;16.30;;;8.80;99.90;;;;;;4997443;28;20072;-62
2022/04/26 04:40:25;;;;;;;32.55;15.52;;;8.80;99.90;;;;;;5003096;28;20064;-62
2022/04/26 04:42:51;;;;;;;34.88;16.45;;;8.80;99.90;;;;;;5008032;28;20065;-62
2022/04/26 04:45:17;;;;;;;29.95;15.00;;;8.80;99.90;;;;;;5008393;28;20041;-62
2022/04/26 04:47:43;;;;;;;33.30;16.65;;;8.80;99.90;;;;;;4991844;28;20029;-62
2022/04/26 04:50:09;;;;;;;33.15;15.75;;;8.80;99.90;;;;;;5012686;28;20092;-62
2022/04/26 04:52:36;;;;;;;30.92;14.73;;;8.80;99.90;;;;;;5011850;28;20034;-62
2022/04/26 04:55:02;;;;;;;32.97;16.30;;;8.80;99.90;;;;;;5008468;28;20474;-62
2022/04/26 04:57:27;;;;;;;34.10;16.45;;;8.80;99.90;;;;;;4991790;28;20030;-62
2022/04/26 04:59:53;;;;;;;30.70;15.45;;;8.80;99.90;;;;;;5008394;28;20030;-62
2022/04/26 05:02:19;;;;;;;38.50;15.90;;;8.80;99.90;;;;;;5010647;28;20038;-62
2022/04/26 05:04:47;;;;;;;29.67;15.38;;;8.80;99.90;;;;;;5014382;28;20026;-62
2022/04/26 05:07:12;;;;;;;31.17;14.98;;;8.80;99.90;;;;;;5013580;28;20092;-62
2022/04/26 05:09:41;;;;;;;30.45;14.48;;;8.90;99.90;;;;;;5012025;28;20026;-62
2022/04/26 05:12:07;;;;;;;31.23;14.45;;;8.90;99.90;;;;;;4993201;28;20039;-62
2022/04/26 05:14:33;;;;;;;31.10;15.02;;;8.90;99.90;;;;;;5005628;28;20046;-62
2022/04/26 05:16:59;;;;;;;28.48;14.02;;;8.90;99.90;;;;;;5011439;28;20036;-62
2022/04/26 05:19:24;;;;;;;24.27;13.13;;;8.90;99.90;;;;;;5021625;28;20025;-62
2022/04/26 05:21:50;;;;;;;21.50;11.32;;;8.90;99.90;;;;;;5009863;28;20038;-62
2022/04/26 05:27:00;;;;;;;21.42;11.10;;;8.90;99.90;;;;;;5011536;28;20028;-62
2022/04/26 05:29:26;;;;;;;24.70;11.80;;;8.90;99.90;;;;;;5012307;28;20041;-62
2022/04/26 05:31:52;;;;;;;22.02;10.95;;;8.90;99.90;;;;;;5011597;28;20034;-62
2022/04/26 05:34:18;;;;;;;19.30;10.15;;;9.00;99.90;;;;;;5010502;28;20554;-62
2022/04/26 05:36:43;;;;;;;21.20;10.30;;;9.00;99.90;;;;;;5022571;28;20053;-62
2022/04/26 05:39:09;;;;;;;23.00;11.48;;;9.00;99.90;;;;;;5019836;28;20463;-62
2022/04/26 05:41:35;;;;;;;21.65;10.27;;;9.10;99.90;;;;;;5012471;28;20463;-62
2022/04/26 05:44:00;;;;;;;19.08;9.70;;;9.00;99.90;;;;;;5010814;28;20584;-62
2022/04/26 05:46:26;;;;;;;16.27;8.98;;;9.10;99.90;;;;;;5010234;28;20045;-62
2022/04/26 05:48:52;;;;;;;20.73;9.63;;;9.20;99.90;;;;;;5012408;28;20040;-62
2022/04/26 05:51:17;;;;;;;17.95;9.23;;;9.20;99.90;;;;;;4993918;28;20066;-62
2022/04/26 05:53:43;;;;;;;17.85;9.07;;;9.20;99.90;;;;;;4978921;28;20030;-62
2022/04/26 05:56:12;;;;;;;17.95;9.48;;;9.30;99.90;;;;;;5010064;28;20044;-62
2022/04/26 05:58:38;;;;;;;17.33;9.05;;;9.40;99.90;;;;;;5024495;28;20041;-62
2022/04/26 06:01:03;;;;;;;16.42;7.80;;;9.40;99.90;;;;;;4995927;28;20049;-62
2022/04/26 06:03:29;;;;;;;14.60;7.45;;;9.50;99.90;;;;;;4998679;28;20038;-62
2022/04/26 06:05:55;;;;;;;12.98;7.25;;;9.50;99.90;;;;;;4995021;28;20027;-62
2022/04/26 06:08:22;;;;;;;11.85;6.70;;;9.60;99.90;;;;;;5001880;28;20029;-62
2022/04/26 06:10:48;;;;;;;13.32;6.85;;;9.50;99.90;;;;;;4989089;28;20485;-62
2022/04/26 06:13:15;;;;;;;13.90;7.53;;;9.50;99.90;;;;;;5011155;28;20073;-62
2022/04/26 06:15:41;;;;;;;12.73;6.97;;;9.50;99.90;;;;;;5008793;28;20066;-62
2022/04/26 06:18:06;;;;;;;14.13;7.28;;;9.50;99.90;;;;;;4992815;28;20034;-62
2022/04/26 06:20:32;;;;;;;11.98;6.60;;;9.40;99.90;;;;;;4993856;28;20636;-62
2022/04/26 06:22:58;;;;;;;13.15;7.05;;;9.40;99.90;;;;;;5008729;28;20072;-62
2022/04/26 06:25:24;;;;;;;11.40;6.22;;;9.30;99.90;;;;;;5009394;28;20467;-62
2022/04/26 06:27:50;;;;;;;12.82;6.97;;;9.30;99.90;;;;;;4993087;28;20101;-62
2022/04/26 06:30:15;;;;;;;12.95;6.93;;;9.30;99.90;;;;;;5000776;28;20108;-62
2022/04/26 06:32:43;;;;;;;12.13;6.65;;;9.20;99.90;;;;;;4993070;28;20571;-63
2022/04/26 06:35:09;;;;;;;12.90;6.90;;;9.20;99.90;;;;;;4999166;28;20177;-63
2022/04/26 06:37:35;;;;;;;14.93;7.43;;;9.20;99.90;;;;;;5003916;28;20027;-62
2022/04/26 06:40:01;;;;;;;16.27;7.95;;;9.20;99.90;;;;;;5005451;28;20034;-62
2022/04/26 06:42:27;;;;;;;14.18;7.38;;;9.10;99.90;;;;;;5013928;28;20046;-62
2022/04/26 06:44:52;;;;;;;11.70;6.57;;;9.10;99.90;;;;;;5009959;28;20032;-62
2022/04/26 06:47:18;;;;;;;12.50;6.90;;;9.10;99.90;;;;;;5009225;28;20034;-62
2022/04/26 06:49:44;;;;;;;12.43;7.38;;;9.20;99.90;;;;;;5010156;28;20034;-62
2022/04/26 06:52:10;;;;;;;13.80;7.55;;;9.20;99.90;;;;;;4976324;28;20026;-62
2022/04/26 06:54:35;;;;;;;15.07;8.07;;;9.30;99.90;;;;;;5009886;28;20041;-62
2022/04/26 06:57:01;;;;;;;11.73;7.13;;;9.30;99.90;;;;;;4996697;28;20046;-62
2022/04/26 06:59:27;;;;;;;12.73;6.93;;;9.30;99.90;;;;;;4990879;28;20066;-62
2022/04/26 07:01:54;;;;;;;13.30;7.50;;;9.20;99.90;;;;;;5005422;28;20037;-62
2022/04/26 07:04:20;;;;;;;15.38;7.63;;;9.10;99.90;;;;;;5001386;28;20109;-62
2022/04/26 07:06:47;;;;;;;13.40;7.35;;;9.10;99.90;;;;;;5005605;28;20053;-62
2022/04/26 07:09:13;;;;;;;14.02;8.00;;;9.10;99.90;;;;;;5009142;28;20061;-62
2022/04/26 07:11:38;;;;;;;14.98;7.75;;;9.10;99.90;;;;;;4998813;28;20430;-62
2022/04/26 07:14:05;;;;;;;12.63;7.05;;;9.10;99.90;;;;;;5006518;28;20072;-63
2022/04/26 07:16:31;;;;;;;12.65;6.20;;;9.10;99.90;;;;;;4991709;28;20077;-62
2022/04/26 07:18:56;;;;;;;13.40;6.60;;;9.10;99.90;;;;;;4998116;28;20035;-62
2022/04/26 07:21:22;;;;;;;11.23;6.35;;;9.00;99.90;;;;;;4998020;28;20025;-62
2022/04/26 07:23:47;;;;;;;10.93;6.22;;;9.00;99.90;;;;;;4991219;28;20036;-63
2022/04/26 07:26:14;;;;;;;10.93;6.20;;;9.00;99.90;;;;;;4972639;28;20116;-62
2022/04/26 07:28:39;;;;;;;11.50;5.90;;;9.00;99.90;;;;;;5009079;28;20084;-62
2022/04/26 07:31:05;;;;;;;7.85;4.50;;;9.10;99.90;;;;;;5009332;28;20041;-62
2022/04/26 07:36:15;;;;;;;6.10;3.70;;;9.20;99.90;;;;;;5006074;28;20108;-62
2022/04/26 07:38:41;;;;;;;5.13;3.40;;;9.30;99.90;;;;;;5008562;28;20394;-62
2022/04/26 07:41:07;;;;;;;6.90;3.90;;;9.30;99.90;;;;;;5012728;28;20034;-62
2022/04/26 07:43:33;;;;;;;6.60;3.88;;;9.30;99.90;;;;;;5013291;28;20044;-62
2022/04/26 07:45:59;;;;;;;6.18;3.53;;;9.30;99.90;;;;;;4990843;28;20038;-62
2022/04/26 07:48:25;;;;;;;7.25;4.20;;;9.40;99.90;;;;;;4998146;28;20545;-62
2022/04/26 07:50:51;;;;;;;7.05;3.88;;;9.50;99.90;;;;;;5008690;28;20033;-62
2022/04/26 07:53:17;;;;;;;6.93;4.00;;;9.50;99.90;;;;;;5009179;28;20037;-62
2022/04/26 07:55:43;;;;;;;7.47;4.35;;;9.60;99.90;;;;;;4992561;28;20030;-62
2022/04/26 07:58:10;;;;;;;7.05;3.83;;;9.60;99.90;;;;;;5001700;28;20375;-62
2022/04/26 08:00:36;;;;;;;7.32;4.18;;;9.50;99.90;;;;;;4998278;28;20045;-62
2022/04/26 08:03:02;;;;;;;9.90;4.90;;;9.50;99.90;;;;;;5010005;28;20503;-62
2022/04/26 08:05:29;;;;;;;8.88;4.75;;;9.50;99.90;;;;;;4985650;28;20038;-62
2022/04/26 08:07:55;;;;;;;5.88;3.85;;;9.50;99.90;;;;;;4995244;28;20085;-62
2022/04/26 08:10:21;;;;;;;7.60;4.30;;;9.50;99.90;;;;;;5003805;28;20030;-62
2022/04/26 08:12:47;;;;;;;7.78;4.30;;;9.60;99.90;;;;;;5009418;28;20044;-62
2022/04/26 08:15:14;;;;;;;7.97;4.50;;;9.60;99.90;;;;;;4983198;28;20054;-62
2022/04/26 08:17:40;;;;;;;6.07;3.75;;;9.80;99.90;;;;;;4959407;28;20489;-62
2022/04/26 08:20:09;;;;;;;6.75;3.60;;;10.00;99.90;;;;;;4968343;28;20027;-63
2022/04/26 08:22:34;;;;;;;6.20;3.78;;;9.90;99.90;;;;;;4954300;28;20528;-62
2022/04/26 08:27:44;;;;;;;6.05;3.70;;;9.70;99.90;;;;;;4951490;29;20056;-62
2022/04/26 08:30:10;;;;;;;8.07;4.15;;;9.60;99.90;;;;;;4950978;29;20476;-62
2022/04/26 08:32:41;;;;;;;7.35;4.22;;;9.60;99.90;;;;;;4967649;28;20451;-62
2022/04/26 08:35:10;;;;;;;7.43;4.22;;;9.60;99.90;;;;;;4969772;28;20031;-62
2022/04/26 08:37:36;;;;;;;7.75;4.45;;;9.60;99.90;;;;;;4970693;28;20031;-62
2022/04/26 08:40:05;;;;;;;7.53;3.78;;;9.50;99.90;;;;;;4980434;28;20135;-62
2022/04/26 08:42:38;;;;;;;7.47;4.45;;;9.60;99.90;;;;;;4986407;28;20042;-62
2022/04/26 08:45:05;;;;;;;9.50;4.90;;;9.60;99.90;;;;;;4970564;28;20075;-62
2022/04/26 08:53:01;;;;;;;10.23;5.43;;;9.60;99.90;;;;;;4970648;28;20046;-62
2022/04/26 08:55:27;;;;;;;10.20;5.47;;;9.60;99.90;;;;;;4967234;28;20022;-62
2022/04/26 08:57:53;;;;;;;11.93;6.47;;;9.70;99.90;;;;;;4970432;28;20027;-62
2022/04/26 09:00:19;;;;;;;8.38;5.00;;;9.70;99.90;;;;;;4969724;28;20643;-62
2022/04/26 09:03:03;;;;;;;10.63;5.90;;;9.70;99.90;;;;;;4970257;28;20391;-62
2022/04/26 09:05:29;;;;;;;13.50;7.00;;;9.70;99.90;;;;;;4969658;28;20076;-62
2022/04/26 09:07:54;;;;;;;13.13;6.85;;;9.90;99.90;;;;;;4970507;28;20101;-62
2022/04/26 09:10:20;;;;;;;15.73;7.30;;;9.80;99.90;;;;;;4974724;28;20030;-62
2022/04/26 09:13:14;;;;;;;16.15;7.68;;;9.80;99.90;;;;;;4988294;28;20034;-61
2022/04/26 09:15:39;;;;;;;16.60;8.52;;;9.90;99.90;;;;;;4987861;28;20100;-62
2022/04/26 09:18:13;;;;;;;12.85;7.22;;;9.90;99.90;;;;;;4989786;28;20038;-62
2022/04/26 09:20:39;;;;;;;10.38;5.65;;;10.00;99.90;;;;;;4989794;28;20034;-62
2022/04/26 09:23:21;;;;;;;10.18;5.88;;;9.90;99.90;;;;;;4989564;28;20038;-62
2022/04/26 09:25:50;;;;;;;10.85;5.53;;;9.90;99.90;;;;;;4967660;28;20022;-62
2022/04/26 09:28:27;;;;;;;11.13;6.13;;;9.90;99.90;;;;;;4969560;28;20035;-62
2022/04/26 09:30:54;;;;;;;10.77;5.40;;;9.80;99.90;;;;;;4970128;28;20270;-62
2022/04/26 09:33:38;;;;;;;10.35;5.45;;;9.70;99.90;;;;;;4969551;28;20023;-62
2022/04/26 09:36:10;;;;;;;10.82;5.50;;;9.60;99.90;;;;;;4970164;28;20101;-62
2022/04/26 09:38:41;;;;;;;10.13;5.63;;;9.50;99.90;;;;;;4969890;28;20031;-62
2022/04/26 09:41:09;;;;;;;12.38;6.80;;;9.30;99.90;;;;;;4966490;28;20046;-62
2022/04/26 09:43:37;;;;;;;13.40;7.53;;;9.20;99.90;;;;;;4988817;28;20104;-62
2022/04/26 09:46:04;;;;;;;13.70;7.57;;;9.20;99.90;;;;;;4989589;28;20395;-62
2022/04/26 09:48:35;;;;;;;14.07;8.07;;;9.10;99.90;;;;;;4979603;28;20106;-62
2022/04/26 09:51:10;;;;;;;17.17;8.35;;;9.10;99.90;;;;;;4971981;28;20047;-61
2022/04/26 09:53:36;;;;;;;18.50;9.30;;;9.00;99.90;;;;;;4973199;28;20034;-61
2022/04/26 09:56:04;;;;;;;15.05;8.45;;;8.90;99.90;;;;;;4973762;28;20023;-62
2022/04/26 09:58:30;;;;;;;14.95;7.95;;;8.70;99.90;;;;;;4991891;28;20596;-62
2022/04/26 10:01:00;;;;;;;16.67;8.05;;;8.70;99.90;;;;;;4992741;28;20027;-62
2022/04/26 10:03:31;;;;;;;14.27;7.47;;;8.70;99.90;;;;;;4982606;28;20035;-62
2022/04/26 10:06:05;;;;;;;;;;;8.70;99.90;;;;;;4973734;28;20054;-62
2022/04/26 10:08:34;;;;;;;16.23;8.23;;;8.80;99.90;;;;;;4972293;28;20575;-62
2022/04/26 10:11:02;;;;;;;15.48;7.85;;;8.90;99.90;;;;;;4971932;28;20026;-62
2022/04/26 10:13:39;;;;;;;16.40;8.48;;;9.00;99.90;;;;;;4972253;28;20035;-62
2022/04/26 10:16:19;;;;;;;16.80;8.75;;;9.10;99.90;;;;;;5010544;28;20137;-61
2022/04/26 10:18:48;;;;;;;19.15;9.93;;;9.30;99.90;;;;;;5016418;28;20034;-61
2022/04/26 10:21:22;;;;;;;17.08;8.80;;;9.40;99.90;;;;;;5011031;28;20033;-62
2022/04/26 10:23:51;;;;;;;16.75;9.00;;;9.50;99.90;;;;;;5011829;28;20041;-62
2022/04/26 10:26:23;;;;;;;17.65;9.18;;;9.60;99.90;;;;;;5010782;28;20395;-62
2022/04/26 10:28:57;;;;;;;19.40;9.85;;;9.70;99.90;;;;;;5027958;28;20045;-62
2022/04/26 10:31:38;;;;;;;18.50;9.38;;;9.70;99.90;;;;;;5030820;28;20018;-62
2022/04/26 10:34:27;;;;;;;16.23;8.95;;;9.90;99.90;;;;;;5015352;28;20041;-62
2022/04/26 10:37:22;;;;;;;19.35;10.05;;;10.00;99.90;;;;;;5011034;28;20022;-62
2022/04/26 10:40:02;;;;;;;26.83;10.38;;;10.10;99.90;;;;;;4994111;28;20052;-62
2022/04/26 10:42:29;;;;;;;;;;;10.20;99.90;;;;;;5009869;28;20056;-62
2022/04/26 10:45:09;;;;;;;19.48;10.45;;;10.40;99.90;;;;;;5011380;28;19917;-62
2022/04/26 10:47:35;;;;;;;23.83;12.27;;;10.60;99.90;;;;;;5010112;28;20172;-62
2022/04/26 10:50:03;;;;;;;22.25;12.40;;;10.80;99.90;;;;;;4993861;28;20125;-62
2022/04/26 10:52:33;;;;;;;23.38;11.68;;;10.80;99.90;;;;;;5010663;28;20049;-62
2022/04/26 10:55:04;;;;;;;24.10;11.95;;;10.70;99.90;;;;;;5011372;28;20026;-62
2022/04/26 10:57:33;;;;;;;24.90;12.77;;;10.70;99.90;;;;;;5008532;28;20033;-62
2022/04/26 11:00:00;;;;;;;28.38;12.02;;;10.60;99.90;;;;;;4993267;28;20393;-62
2022/04/26 11:02:28;;;;;;;27.33;12.98;;;10.60;99.90;;;;;;4975945;28;20038;-62
2022/04/26 11:05:01;;;;;;;22.52;12.15;;;10.60;99.90;;;;;;5010915;28;20545;-62
2022/04/26 11:07:29;;;;;;;25.02;12.52;;;10.50;99.90;;;;;;5010269;28;20103;-62
2022/04/26 11:09:56;;;;;;;22.42;12.27;;;10.70;99.90;;;;;;5010711;28;20057;-62
2022/04/26 11:12:26;;;;;;;23.58;13.07;;;10.80;99.90;;;;;;5009012;28;20037;-62
2022/04/26 11:14:54;;;;;;;24.75;12.55;;;11.10;99.90;;;;;;4976942;28;20061;-62
2022/04/26 11:17:24;;;;;;;24.58;12.52;;;11.30;99.90;;;;;;5010079;28;20104;-62
2022/04/26 11:19:58;;;;;;;21.92;11.77;;;11.40;99.90;;;;;;5010608;28;20029;-63
2022/04/26 11:22:25;;;;;;;25.20;12.52;;;11.30;99.90;;;;;;5009815;28;20042;-63
2022/04/26 11:30:35;;;;;;;20.83;11.55;;;11.40;99.90;;;;;;5021075;28;20116;-63
2022/04/26 11:33:10;;;;;;;21.98;11.65;;;11.40;99.90;;;;;;5030068;28;20466;-63
2022/04/26 11:35:37;;;;;;;22.13;11.80;;;11.50;99.90;;;;;;5026378;28;20194;-62
2022/04/26 11:38:09;;;;;;;20.60;11.95;;;11.60;99.90;;;;;;5000167;28;20522;-63
2022/04/26 11:40:49;;;;;;;23.35;12.65;;;12.10;99.90;;;;;;5005973;28;20037;-62
2022/04/26 11:43:19;;;;;;;24.80;11.65;;;12.40;99.90;;;;;;5008729;28;20096;-63
2022/04/26 11:45:50;;;;;;;22.27;11.07;;;12.50;99.90;;;;;;5010149;28;20057;-63
2022/04/26 11:48:30;;;;;;;18.90;10.02;;;12.50;99.90;;;;;;5010015;28;20471;-62
2022/04/26 11:50:57;;;;;;;23.45;13.50;;;12.70;99.90;;;;;;5010394;28;20029;-63
2022/04/26 11:53:28;;;;;;;26.08;12.20;;;12.80;99.90;;;;;;5009545;28;20061;-62
2022/04/26 11:56:00;;;;;;;;;;;12.80;99.90;;;;;;5010695;28;20030;-63
2022/04/26 11:58:34;;;;;;;18.33;10.35;;;12.90;99.90;;;;;;5009510;28;19905;-62
2022/04/26 12:01:02;;;;;;;25.17;11.73;;;12.90;99.90;;;;;;5008755;28;20037;-62
2022/04/26 12:03:38;;;;;;;35.97;19.85;;;12.80;99.90;;;;;;5009196;28;20037;-62
2022/04/26 12:06:09;;;;;;;22.13;12.98;;;12.90;99.90;;;;;;4992313;28;20041;-62
2022/04/26 12:08:50;;;;;;;18.85;10.68;;;13.00;99.90;;;;;;5008710;28;20073;-63
2022/04/26 12:11:24;;;;;;;18.08;9.82;;;13.60;99.90;;;;;;5009666;28;20383;-63
2022/04/26 12:14:03;;;;;;;17.38;9.38;;;13.90;99.90;;;;;;4993391;28;20382;-62
2022/04/26 12:16:30;;;;;;;19.90;9.40;;;14.10;99.90;;;;;;5020048;28;20494;-63
2022/04/26 12:19:00;;;;;;;18.10;9.20;;;14.10;99.90;;;;;;5026647;28;20061;-63
2022/04/26 12:21:26;;;;;;;18.25;10.73;;;13.80;99.90;;;;;;5008611;28;20029;-63
2022/04/26 12:24:12;;;;;;;20.85;10.02;;;13.70;99.90;;;;;;4992146;28;20711;-63
2022/04/26 12:26:57;;;;;;;17.80;9.73;;;13.60;99.90;;;;;;5016102;28;20880;-63
2022/04/26 12:29:39;;;;;;;19.65;11.38;;;13.60;99.90;;;;;;4996212;28;20034;-63
2022/04/26 12:32:09;;;;;;;19.13;10.18;;;13.70;99.90;;;;;;4995620;28;20088;-63
2022/04/26 12:34:36;;;;;;;17.20;9.70;;;13.60;99.90;;;;;;5008178;28;20052;-63
2022/04/26 12:37:08;;;;;;;20.55;10.57;;;13.50;99.90;;;;;;5009680;28;20067;-63
2022/04/26 12:39:48;;;;;;;19.27;10.10;;;13.50;99.90;;;;;;5007056;28;20037;-63
2022/04/26 12:42:27;;;;;;;19.52;10.25;;;13.60;99.90;;;;;;4997189;28;20105;-62
2022/04/26 12:45:00;;;;;;;18.92;9.32;;;13.70;99.90;;;;;;4991098;28;20038;-63
2022/04/26 12:50:35;;;;;;;18.40;9.52;;;13.80;99.90;;;;;;4997244;28;20092;-62
2022/04/26 12:53:06;;;;;;;19.02;10.20;;;13.60;99.90;;;;;;5007785;28;20045;-62
2022/04/26 12:55:37;;;;;;;21.05;9.77;;;13.30;99.90;;;;;;5019567;28;20080;-63
2022/04/26 12:58:08;;;;;;;17.58;9.75;;;12.90;99.90;;;;;;5009144;28;20022;-62
2022/04/26 13:00:50;;;;;;;15.10;9.45;;;12.30;99.90;;;;;;5008428;28;20085;-63
2022/04/26 13:03:19;;;;;;;24.75;10.85;;;11.50;99.90;;;;;;5007368;28;20069;-62
2022/04/26 13:05:46;;;;;;;22.02;9.48;;;10.80;99.90;;;;;;5007901;28;20068;-62
2022/04/26 13:08:17;;;;;;;20.67;10.20;;;10.30;99.90;;;;;;5012704;28;20029;-62
2022/04/26 13:10:43;;;;;;;21.63;9.85;;;10.00;99.90;;;;;;5019592;28;20592;-61
2022/04/26 13:13:10;;;;;;;24.08;10.20;;;9.70;99.90;;;;;;5014692;28;20042;-62
2022/04/26 13:15:36;;;;;;;21.52;10.23;;;9.50;99.90;;;;;;5004719;28;20108;-61
2022/04/26 13:18:03;;;;;;;21.83;10.60;;;9.40;99.90;;;;;;5006087;28;20038;-61
2022/04/26 13:20:29;;;;;;;21.33;10.70;;;9.30;99.90;;;;;;4988633;28;20031;-61
2022/04/26 13:22:55;;;;;;;24.33;10.82;;;9.10;99.90;;;;;;5007704;28;20042;-61
2022/04/26 13:25:21;;;;;;;20.38;11.30;;;9.10;99.90;;;;;;4995665;28;20026;-61
2022/04/26 13:27:48;;;;;;;21.92;10.55;;;9.10;99.90;;;;;;4993261;28;20040;-61
2022/04/26 13:30:15;;;;;;;21.73;10.80;;;9.10;99.90;;;;;;5008401;28;20109;-61
2022/04/26 13:32:41;;;;;;;20.15;11.10;;;9.20;99.90;;;;;;5011116;28;20030;-61
2022/04/26 13:35:08;;;;;;;24.38;11.18;;;9.20;99.90;;;;;;4975110;28;20046;-61
2022/04/26 13:37:34;;;;;;;21.00;10.88;;;9.30;99.90;;;;;;5008289;28;20033;-61
2022/04/26 13:40:02;;;;;;;25.98;11.57;;;9.20;99.90;;;;;;5011064;28;20030;-61
2022/04/26 13:42:30;;;;;;;27.20;11.88;;;9.10;99.90;;;;;;5010132;28;20086;-61
2022/04/26 13:44:56;;;;;;;25.13;12.88;;;8.90;99.90;;;;;;5012525;28;20029;-61
2022/04/26 13:47:22;;;;;;;25.00;12.90;;;8.80;99.90;;;;;;5010438;28;20042;-61
2022/04/26 13:49:48;;;;;;;27.75;13.82;;;8.70;99.90;;;;;;4993529;28;20526;-61
2022/04/26 13:52:15;;;;;;;28.58;13.82;;;8.80;99.90;;;;;;5009513;28;20092;-61
2022/04/26 13:54:43;;;;;;;26.23;13.57;;;8.80;99.90;;;;;;4995880;28;20116;-61
2022/04/26 13:57:10;;;;;;;24.05;12.93;;;9.00;99.90;;;;;;4989332;28;20041;-61
2022/04/26 13:59:36;;;;;;;30.08;12.98;;;9.20;99.90;;;;;;5011502;28;20125;-62
2022/04/26 14:02:03;;;;;;;25.67;13.52;;;9.30;99.90;;;;;;5011192;28;20054;-62
2022/04/26 14:04:28;;;;;;;24.65;13.23;;;9.60;99.90;;;;;;5008668;28;20038;-62
2022/04/26 14:06:54;;;;;;;23.90;12.20;;;9.70;99.90;;;;;;5009665;28;20048;-62
2022/04/26 14:09:22;;;;;;;23.88;12.88;;;9.80;99.90;;;;;;5001126;28;20111;-62
2022/04/26 14:11:48;;;;;;;24.73;13.50;;;9.80;99.90;;;;;;5010405;28;20030;-62
2022/04/26 14:22:32;;;;;;;24.70;11.90;;;9.60;99.90;;;;;;5005307;28;20038;-61
2022/04/26 14:25:16;;;;;;;24.10;11.50;;;9.50;99.90;;;;;;5004757;28;20073;-62
2022/04/26 14:27:45;;;;;;;23.95;11.45;;;9.20;99.90;;;;;;5010046;28;20394;-61
2022/04/26 14:30:12;;;;;;;23.75;10.13;;;9.00;99.90;;;;;;5000725;28;20030;-62
2022/04/26 14:32:38;;;;;;;21.92;10.30;;;9.00;99.90;;;;;;5009801;28;20033;-61
2022/04/26 14:35:04;;;;;;;21.10;10.77;;;8.90;99.90;;;;;;5005550;28;20084;-61
2022/04/26 14:37:33;;;;;;;20.58;10.05;;;9.00;99.90;;;;;;4998892;28;20030;-61
2022/04/26 14:39:58;;;;;;;20.45;10.25;;;8.80;99.90;;;;;;5006643;28;20765;-62
2022/04/26 14:42:24;;;;;;;22.13;10.13;;;8.70;99.90;;;;;;4992664;28;20128;-62
2022/04/26 14:44:50;;;;;;;19.70;10.65;;;8.50;99.90;;;;;;5008254;28;20288;-61
2022/04/26 14:47:16;;;;;;;22.05;10.35;;;8.50;99.90;;;;;;5015493;28;20105;-62
2022/04/26 14:49:42;;;;;;;24.95;10.95;;;8.50;99.90;;;;;;5008440;28;20029;-63
2022/04/26 14:52:08;;;;;;;21.08;10.43;;;8.50;99.90;;;;;;4991818;28;20061;-63
2022/04/26 14:54:35;;;;;;;22.02;11.30;;;8.70;99.90;;;;;;5009881;28;20033;-62
2022/04/26 14:57:01;;;;;;;26.00;12.10;;;8.80;99.90;;;;;;5007528;28;20025;-63
2022/04/26 14:59:27;;;;;;;21.35;10.65;;;9.20;99.90;;;;;;5008990;28;20053;-62
2022/04/26 15:01:53;;;;;;;24.30;10.95;;;9.60;99.90;;;;;;5003199;28;20053;-62
2022/04/26 15:04:22;;;;;;;21.40;8.68;;;9.70;99.90;;;;;;5000807;28;20638;-62
2022/04/26 15:06:49;;;;;;;17.75;8.30;;;9.90;99.90;;;;;;5002840;28;20614;-62
2022/04/26 15:17:30;;;;;;;15.80;8.32;;;10.20;99.90;;;;;;4996915;28;20502;-62
2022/04/26 15:19:56;;;;;;;14.50;8.13;;;10.20;99.90;;;;;;4995309;28;20030;-62
2022/04/26 15:22:23;;;;;;;17.92;7.78;;;10.40;99.90;;;;;;5001218;28;20048;-63
2022/04/26 15:24:51;;;;;;;14.90;7.88;;;10.40;99.90;;;;;;5008565;28;20030;-63
2022/04/26 15:27:18;;;;;;;16.70;8.02;;;10.30;99.90;;;;;;5010295;28;20517;-63
2022/04/26 15:29:44;;;;;;;14.75;7.22;;;10.20;99.90;;;;;;4998767;28;20034;-63
2022/04/26 15:32:11;;;;;;;14.65;7.20;;;10.10;99.90;;;;;;4991265;28;20375;-63
2022/04/26 15:34:37;;;;;;;11.52;6.90;;;10.10;99.90;;;;;;4989785;28;20062;-63
2022/04/26 15:37:03;;;;;;;12.48;7.30;;;10.00;99.90;;;;;;5009347;28;20033;-63
2022/04/26 15:39:29;;;;;;;14.40;7.18;;;10.00;99.90;;;;;;5012494;28;20033;-63
2022/04/26 15:41:56;;;;;;;11.65;6.53;;;10.00;99.90;;;;;;5029510;28;20041;-63
2022/04/26 15:44:22;;;;;;;12.50;6.82;;;9.90;99.90;;;;;;5030052;28;20486;-63
2022/04/26 15:46:50;;;;;;;13.02;6.30;;;10.00;99.90;;;;;;5029390;28;20040;-64
2022/04/26 15:49:19;;;;;;;11.55;5.80;;;10.10;99.90;;;;;;4992656;28;20133;-64
2022/04/26 15:51:47;;;;;;;13.23;6.32;;;10.20;99.90;;;;;;5017135;28;20029;-63
2022/04/26 15:54:14;;;;;;;13.55;5.57;;;10.40;99.90;;;;;;5012318;28;20036;-63
2022/04/26 15:56:41;;;;;;;10.70;5.47;;;10.30;99.90;;;;;;5029118;28;20363;-64
2022/04/26 15:59:08;;;;;;;9.77;4.88;;;10.20;99.90;;;;;;5012035;28;20434;-64
2022/04/26 16:01:34;;;;;;;9.95;5.22;;;10.20;99.90;;;;;;5029091;28;20100;-62
2022/04/26 16:04:00;;;;;;;10.27;5.22;;;10.30;99.90;;;;;;5029392;28;20133;-63
2022/04/26 16:06:26;;;;;;;9.93;5.30;;;10.40;99.90;;;;;;5018885;28;20030;-63
2022/04/26 16:08:51;;;;;;;9.82;5.25;;;10.50;99.90;;;;;;5008312;28;20026;-64
2022/04/26 16:22:15;;;;;;;8.18;4.35;;;10.30;99.90;;;;;;5008081;28;20115;-63
2022/04/26 16:24:41;;;;;;;9.40;4.68;;;10.20;99.90;;;;;;5009087;28;20022;-63
2022/04/26 16:27:08;;;;;;;7.47;4.10;;;10.10;99.90;;;;;;4992143;28;20083;-64
2022/04/26 16:29:34;;;;;;;9.50;4.90;;;10.10;99.90;;;;;;4991544;28;20037;-62
2022/04/26 16:32:00;;;;;;;9.52;4.78;;;10.10;99.90;;;;;;5009302;28;20554;-64
2022/04/26 16:34:27;;;;;;;10.02;4.88;;;10.10;99.90;;;;;;5009572;28;20026;-63
2022/04/26 16:36:54;;;;;;;9.55;4.82;;;10.10;99.90;;;;;;5007786;28;20018;-63
2022/04/26 16:39:20;;;;;;;11.57;5.07;;;10.10;99.90;;;;;;5009161;28;20503;-64
2022/04/26 16:41:45;;;;;;;9.25;5.13;;;10.20;99.90;;;;;;5008370;28;20030;-63
2022/04/26 16:44:11;;;;;;;11.52;5.63;;;10.20;99.90;;;;;;5008404;28;20026;-63
2022/04/26 16:46:37;;;;;;;9.40;4.80;;;10.20;99.90;;;;;;5008783;28;20393;-62
2022/04/26 16:49:03;;;;;;;11.13;4.75;;;10.20;99.90;;;;;;5009558;28;20490;-63
2022/04/26 16:51:30;;;;;;;12.93;5.20;;;10.10;99.90;;;;;;5009324;28;20030;-63
2022/04/26 16:53:59;;;;;;;9.88;4.38;;;10.00;99.90;;;;;;5007776;28;20033;-63
2022/04/26 16:56:24;;;;;;;9.43;5.00;;;9.90;99.90;;;;;;5009203;28;20029;-63
2022/04/26 16:58:50;;;;;;;9.73;4.97;;;9.90;99.90;;;;;;5008023;28;20029;-64
2022/04/26 17:01:16;;;;;;;9.38;4.93;;;9.80;99.90;;;;;;5012089;28;20529;-63
2022/04/26 17:03:41;;;;;;;9.80;5.13;;;9.80;99.90;;;;;;4994614;28;20134;-63
2022/04/26 17:06:07;;;;;;;8.50;4.78;;;9.80;99.90;;;;;;5013403;28;20038;-63
2022/04/26 17:08:33;;;;;;;8.57;4.57;;;9.80;99.90;;;;;;5012273;28;20156;-63
2022/04/26 17:13:45;;;;;;;11.00;5.47;;;9.90;99.90;;;;;;5012522;28;20041;-63
2022/04/26 17:16:11;;;;;;;9.98;5.18;;;9.90;99.90;;;;;;5013215;28;20038;-64
2022/04/26 17:18:37;;;;;;;12.10;5.72;;;10.00;99.90;;;;;;5012849;28;20045;-62